Time;durP1;ratioP1;P1;durP2;ratioP2;P2;SDS_P1;SDS_P2;PMS_P1;PMS_P2;Temp;Humidity;BMP_temperature;BMP_pressure;BME280_temperature;BME280_humidity;BME280_pressure;Samples;Min_cycle;Max_cycle;Signal;HPM_P1;HPM_P2
2022/04/27 00:00:27;;;;;;;;;13.25;11.75;;;;;12.02;44.38;101566.72;5053281;28;45572;-47
2022/04/27 00:02:52;;;;;;;;;14.50;10.50;;;;;11.99;44.12;101562.41;5055133;28;46130;-47
2022/04/27 00:05:18;;;;;;;;;14.50;10.75;;;;;11.95;44.24;101561.63;5057077;28;45489;-47
2022/04/27 00:07:43;;;;;;;;;15.50;13.00;;;;;11.91;44.48;101556.44;5056044;28;45336;-48
2022/04/27 00:10:09;;;;;;;;;13.50;10.00;;;;;11.91;44.34;101565.16;5057866;28;62742;-47
2022/04/27 00:12:34;;;;;;;;;14.25;10.25;;;;;11.90;44.31;101562.56;5052976;28;47019;-47
2022/04/27 00:15:00;;;;;;;;;16.25;12.75;;;;;11.90;44.70;101567.81;5058035;28;64271;-47
2022/04/27 00:17:25;;;;;;;;;11.75;10.25;;;;;11.87;44.77;101566.09;5053193;28;49453;-50
2022/04/27 00:19:50;;;;;;;;;10.00;6.00;;;;;11.87;44.74;101566.09;5057470;28;65777;-48
2022/04/27 00:22:16;;;;;;;;;11.50;11.00;;;;;11.87;44.61;101568.72;5054563;28;68774;-47
2022/04/27 00:24:41;;;;;;;;;11.75;10.50;;;;;11.83;44.49;101568.81;5058284;28;45664;-49
2022/04/27 00:27:07;;;;;;;;;17.25;11.00;;;;;11.80;45.08;101558.38;5054619;28;61058;-47
2022/04/27 00:29:32;;;;;;;;;15.25;12.75;;;;;11.78;44.93;101567.13;5054738;28;62788;-46
2022/04/27 00:31:58;;;;;;;;;13.75;11.00;;;;;11.78;44.74;101559.28;5047218;28;66678;-47
2022/04/27 00:34:23;;;;;;;;;12.25;10.00;;;;;11.76;44.97;101565.44;5062337;28;55596;-48
2022/04/27 00:36:48;;;;;;;;;14.00;12.00;;;;;11.74;44.82;101569.88;5043840;27;45417;-47
2022/04/27 00:39:14;;;;;;;;;16.25;11.25;;;;;11.71;45.16;101556.81;5054004;28;46085;-46
2022/04/27 00:41:58;;;;;;;;;14.75;11.25;;;;;11.69;44.72;101562.06;5055921;28;46016;-48
2022/04/27 00:44:31;;;;;;;;;11.75;10.50;;;;;11.63;45.01;101561.31;5055368;28;45298;-47
2022/04/27 00:46:56;;;;;;;;;13.50;11.25;;;;;11.62;45.05;101564.84;5056607;28;45498;-48
2022/04/27 00:49:22;;;;;;;;;13.50;9.25;;;;;11.59;45.19;101555.25;5057813;28;45594;-48
2022/04/27 00:51:48;;;;;;;;;13.00;11.00;;;;;11.59;45.37;101557.88;5055739;28;46300;-47
2022/04/27 00:54:13;;;;;;;;;16.00;12.75;;;;;11.56;45.22;101560.53;5052448;28;45314;-47
2022/04/27 00:56:38;;;;;;;;;14.75;9.75;;;;;11.54;45.30;101552.75;5055366;28;45190;-47
2022/04/27 00:59:04;;;;;;;;;13.25;11.75;;;;;11.50;45.37;101556.28;5050965;28;45339;-47
2022/04/27 01:01:29;;;;;;;;;16.00;12.50;;;;;11.48;45.25;101551.97;5056236;28;58428;-47
2022/04/27 01:03:56;;;;;;;;;18.50;13.25;;;;;11.46;45.37;101557.25;5058674;28;45425;-47
2022/04/27 01:06:21;;;;;;;;;12.75;10.50;;;;;11.44;45.11;101553.78;5060580;28;45341;-49
2022/04/27 01:08:47;;;;;;;;;13.75;10.25;;;;;11.40;45.24;101552.97;5058023;28;45453;-46
2022/04/27 01:11:12;;;;;;;;;12.00;11.50;;;;;11.35;45.51;101546.06;5054445;28;45981;-48
2022/04/27 01:13:38;;;;;;;;;12.50;10.25;;;;;11.35;45.67;101552.19;5040209;28;63408;-47
2022/04/27 01:16:04;;;;;;;;;18.00;11.00;;;;;11.33;45.81;101548.72;5061816;28;45534;-47
2022/04/27 01:18:30;;;;;;;;;11.00;9.00;;;;;11.33;45.69;101547.84;5059911;28;45925;-47
2022/04/27 01:20:55;;;;;;;;;15.25;11.50;;;;;11.30;45.57;101540.06;5062377;28;45971;-48
2022/04/27 01:23:21;;;;;;;;;16.50;10.50;;;;;11.30;45.46;101547.91;5039281;28;45477;-45
2022/04/27 01:25:54;;;;;;;;;15.75;12.50;;;;;11.28;45.81;101544.44;5059964;28;45212;-49
2022/04/27 01:28:24;;;;;;;;;11.50;11.00;;;;;11.24;45.57;101541.00;5056305;28;45672;-50
2022/04/27 01:30:57;;;;;;;;;13.75;11.00;;;;;11.21;45.79;101544.56;5055572;28;46266;-48
2022/04/27 01:33:23;;;;;;;;;13.00;10.00;;;;;11.19;45.98;101541.09;5055585;28;45916;-49
2022/04/27 01:35:48;;;;;;;;;16.75;11.50;;;;;11.14;46.35;101540.31;5058636;28;45259;-46
2022/04/27 01:38:17;;;;;;;;;14.50;11.75;;;;;11.17;45.99;101544.63;5055383;28;67909;-46
2022/04/27 01:40:43;;;;;;;;;13.25;12.00;;;;;11.14;45.82;101540.31;5058346;28;46214;-46
2022/04/27 01:43:09;;;;;;;;;14.00;11.00;;;;;11.09;45.82;101552.59;5058276;28;45468;-49
2022/04/27 01:45:34;;;;;;;;;13.25;8.25;;;;;11.07;46.60;101535.19;5062015;28;45572;-48
2022/04/27 01:47:59;;;;;;;;;13.25;10.75;;;;;11.03;46.31;101539.63;5060621;28;45472;-46
2022/04/27 01:50:25;;;;;;;;;13.75;11.50;;;;;10.99;46.54;101544.03;5059637;28;69161;-49
2022/04/27 01:55:35;;;;;;;;;19.00;12.00;;;;;10.94;46.57;101543.25;5061293;28;45361;-46
2022/04/27 01:58:00;;;;;;;;;18.50;13.50;;;;;10.91;46.32;101545.91;5054026;28;45419;-49
2022/04/27 02:00:26;;;;;;;;;10.25;10.00;;;;;10.89;46.54;101549.44;5054369;28;46016;-47
2022/04/27 02:02:51;;;;;;;;;18.00;14.25;;;;;10.84;46.69;101549.50;5053030;28;68143;-49
2022/04/27 02:05:16;;;;;;;;;14.25;13.00;;;;;10.81;46.79;101553.03;5057550;28;59364;-46
2022/04/27 02:07:43;;;;;;;;;19.50;14.00;;;;;10.78;46.83;101552.22;5054548;28;67357;-46
2022/04/27 02:10:09;;;;;;;;;15.50;10.25;;;;;10.73;46.78;101552.28;5060220;28;46976;-49
2022/04/27 02:12:34;;;;;;;;;15.75;14.50;;;;;10.71;46.94;101561.03;5054599;28;45598;-46
2022/04/27 02:14:59;;;;;;;;;15.00;12.25;;;;;10.68;47.10;101563.69;5057459;28;63176;-47
2022/04/27 02:17:25;;;;;;;;;23.25;16.00;;;;;10.66;47.04;101565.47;5058761;28;45236;-47
2022/04/27 02:19:50;;;;;;;;;13.75;13.25;;;;;10.63;47.35;101563.78;5060248;28;45951;-46
2022/04/27 02:22:16;;;;;;;;;13.00;11.25;;;;;10.63;47.33;101564.63;5057746;28;45378;-46
2022/04/27 02:24:41;;;;;;;;;23.25;14.00;;;;;10.63;47.61;101564.63;5056148;28;45799;-48
2022/04/27 02:27:07;;;;;;;;;12.75;9.75;;;;;10.63;47.41;101558.53;5058765;28;45494;-47
2022/04/27 02:29:32;;;;;;;;;17.75;12.50;;;;;10.59;47.62;101554.25;5056912;28;45550;-47
2022/04/27 02:31:58;;;;;;;;;18.00;13.75;;;;;10.60;47.40;101551.56;5056981;28;45403;-47
2022/04/27 02:34:23;;;;;;;;;17.75;14.00;;;;;10.58;47.63;101553.34;5054496;28;45627;-47
2022/04/27 02:36:48;;;;;;;;;17.25;12.50;;;;;10.57;47.67;101556.00;5058010;28;64853;-47
2022/04/27 02:39:14;;;;;;;;;18.25;12.25;;;;;10.55;47.82;101561.28;5057175;28;46149;-47
2022/04/27 02:41:41;;;;;;;;;19.25;16.25;;;;;10.51;47.98;101562.19;5059339;28;45361;-49
2022/04/27 02:44:06;;;;;;;;;18.50;14.25;;;;;10.49;47.51;101556.09;5056845;28;45454;-48
2022/04/27 02:46:31;;;;;;;;;13.50;13.50;;;;;10.46;47.85;101553.53;5059236;28;45446;-47
2022/04/27 02:51:51;;;;;;;;;26.25;18.75;;;;;10.39;48.12;101559.72;5062666;28;45867;-47
2022/04/27 02:54:20;;;;;;;;;21.75;18.00;;;;;10.36;47.74;101562.41;5055019;28;45716;-45
2022/04/27 02:56:45;;;;;;;;;21.00;17.25;;;;;10.32;48.23;101558.94;5057044;28;45504;-47
2022/04/27 02:59:11;;;;;;;;;27.25;24.25;;;;;10.31;48.84;101561.56;5057711;28;45359;-47
2022/04/27 03:01:38;;;;;;;;;17.75;16.75;;;;;10.29;48.13;101553.72;5057660;28;53291;-50
2022/04/27 03:04:04;;;;;;;;;20.25;16.00;;;;;10.24;48.54;101552.91;5055193;28;45334;-49
2022/04/27 03:06:29;;;;;;;;;19.75;16.75;;;;;10.14;48.72;101536.44;5055901;28;46737;-48
2022/04/27 03:08:55;;;;;;;;;24.25;17.00;;;;;10.13;49.08;101533.84;5050227;28;66783;-47
2022/04/27 03:11:20;;;;;;;;;19.50;17.25;;;;;10.16;48.76;101550.38;5058463;28;66714;-49
2022/04/27 03:13:45;;;;;;;;;25.50;19.25;;;;;10.14;48.83;101549.53;5055645;28;60834;-47
2022/04/27 03:16:11;;;;;;;;;22.00;20.50;;;;;10.13;49.37;101552.16;5056786;28;45335;-48
2022/04/27 03:18:36;;;;;;;;;21.75;18.00;;;;;10.12;49.04;101553.91;5055436;28;70184;-49
2022/04/27 03:21:02;;;;;;;;;19.75;16.75;;;;;10.12;49.01;101551.31;5059585;28;45299;-47
2022/04/27 03:23:28;;;;;;;;;30.75;17.25;;;;;10.13;48.85;101546.94;5055137;28;46632;-47
2022/04/27 03:25:53;;;;;;;;;28.50;18.25;;;;;10.10;48.92;101547.84;5040151;28;45473;-51
2022/04/27 03:28:19;;;;;;;;;24.25;18.00;;;;;10.07;49.63;101550.50;5049611;28;74085;-50
2022/04/27 03:30:44;;;;;;;;;28.75;20.75;;;;;10.05;49.99;101547.88;5056514;28;69960;-47
2022/04/27 03:33:10;;;;;;;;;24.25;19.75;;;;;10.04;49.44;101546.19;5054628;28;45537;-48
2022/04/27 03:35:36;;;;;;;;;22.25;19.00;;;;;10.03;49.19;101551.41;5057508;28;70080;-47
2022/04/27 03:38:03;;;;;;;;;27.75;17.50;;;;;10.00;49.50;101541.84;5055455;28;45454;-48
2022/04/27 03:40:28;;;;;;;;;23.50;17.75;;;;;9.99;49.60;101544.50;5060869;28;45354;-47
2022/04/27 03:42:54;;;;;;;;;22.50;17.75;;;;;9.97;49.79;101541.00;5050991;28;45589;-47
2022/04/27 03:45:20;;;;;;;;;27.25;20.25;;;;;9.93;49.36;101536.72;5060631;28;55469;-47
2022/04/27 03:47:48;;;;;;;;;30.75;21.75;;;;;9.89;50.38;101536.75;5055866;28;46180;-48
2022/04/27 03:50:13;;;;;;;;;22.00;20.75;;;;;9.85;49.72;101532.44;5058597;28;70064;-47
2022/04/27 03:52:39;;;;;;;;;30.50;22.25;;;;;9.81;49.99;101535.09;5057529;28;45402;-50
2022/04/27 03:55:04;;;;;;;;;25.50;22.25;;;;;9.77;50.37;101530.78;5058535;28;45300;-48
2022/04/27 03:57:29;;;;;;;;;24.00;17.50;;;;;9.73;50.26;101531.72;5038067;28;46608;-49
2022/04/27 03:59:55;;;;;;;;;24.00;20.00;;;;;9.74;50.28;101538.66;5054399;28;56639;-50
2022/04/27 04:02:20;;;;;;;;;22.00;21.00;;;;;9.72;50.29;101541.31;5053875;28;65938;-47
2022/04/27 04:04:46;;;;;;;;;25.75;21.25;;;;;9.69;50.48;101542.19;5056005;28;46326;-47
2022/04/27 04:07:14;;;;;;;;;25.50;20.00;;;;;9.65;50.73;101540.50;5055539;28;46138;-48
2022/04/27 04:09:39;;;;;;;;;26.50;22.00;;;;;9.63;50.87;101544.88;5053392;28;45334;-50
2022/04/27 04:12:06;;;;;;;;;22.25;19.50;;;;;9.60;51.24;101551.88;5056743;28;45375;-48
2022/04/27 04:14:31;;;;;;;;;26.00;21.00;;;;;9.57;50.67;101550.16;5046927;28;46626;-47
2022/04/27 04:16:57;;;;;;;;;16.25;10.25;;;;;9.53;50.98;101558.91;5056062;28;47269;-48
2022/04/27 04:19:22;;;;;;;;;34.50;24.50;;;;;9.50;51.05;101561.53;5056858;28;66618;-49
2022/04/27 04:21:47;;;;;;;;;23.00;20.00;;;;;9.45;51.29;101558.97;5057174;28;65166;-47
2022/04/27 04:24:13;;;;;;;;;36.00;23.00;;;;;9.42;51.43;101553.78;5055094;28;66244;-48
2022/04/27 04:29:22;;;;;;;;;28.50;22.75;;;;;9.38;51.71;101554.66;5052919;28;45194;-47
2022/04/27 04:31:47;;;;;;;;;31.50;27.00;;;;;9.37;51.50;101558.19;5047026;28;45700;-49
2022/04/27 04:34:13;;;;;;;;;35.50;27.75;;;;;9.36;51.54;101564.28;5055886;28;45245;-49
2022/04/27 04:36:38;;;;;;;;;29.00;19.75;;;;;9.35;51.40;101564.28;5057217;28;59250;-47
2022/04/27 04:39:04;;;;;;;;;29.00;22.75;;;;;9.34;52.43;101570.41;5062170;28;45320;-48
2022/04/27 04:41:29;;;;;;;;;32.25;26.00;;;;;9.32;52.02;101562.56;5061261;28;66212;-48
2022/04/27 04:43:54;;;;;;;;;26.50;23.50;;;;;9.31;51.67;101576.50;5054396;28;67164;-48
2022/04/27 04:46:20;;;;;;;;;25.00;24.25;;;;;9.28;52.14;101571.34;5061486;28;45406;-49
2022/04/27 04:48:45;;;;;;;;;31.00;22.00;;;;;9.27;51.52;101578.28;5057728;28;54115;-47
2022/04/27 04:51:11;;;;;;;;;42.25;25.75;;;;;9.25;52.59;101568.72;5052053;28;65900;-49
2022/04/27 04:53:36;;;;;;;;;30.75;25.50;;;;;9.24;52.50;101573.09;5053776;28;55154;-49
2022/04/27 04:56:01;;;;;;;;;33.00;25.50;;;;;9.22;52.44;101577.44;5059172;28;72785;-49
2022/04/27 04:58:27;;;;;;;;;25.25;21.00;;;;;9.24;52.12;101573.09;5054087;28;45779;-48
2022/04/27 05:00:52;;;;;;;;;33.50;25.50;;;;;9.20;52.05;101573.13;5060154;28;45517;-47
2022/04/27 05:03:18;;;;;;;;;32.75;26.00;;;;;9.21;52.50;101577.47;5058413;28;45441;-50
2022/04/27 05:05:44;;;;;;;;;27.75;23.00;;;;;9.19;52.91;101590.56;5060900;28;71845;-51
2022/04/27 05:08:10;;;;;;;;;28.50;21.00;;;;;9.19;52.99;101589.66;5055345;28;45640;-49
2022/04/27 05:10:35;;;;;;;;;43.75;27.50;;;;;9.20;52.22;101586.19;5051231;28;45883;-50
2022/04/27 05:13:01;;;;;;;;;40.75;28.50;;;;;9.17;52.24;101588.81;5056211;28;45498;-47
2022/04/27 05:15:26;;;;;;;;;35.50;26.75;;;;;9.18;53.01;101590.56;5058553;28;71116;-47
2022/04/27 05:17:51;;;;;;;;;34.25;25.50;;;;;9.20;52.19;101587.03;5059218;28;45380;-48
2022/04/27 05:20:17;;;;;;;;;42.25;31.00;;;;;9.20;52.98;101596.63;5061418;28;62029;-49
2022/04/27 05:22:42;;;;;;;;;31.50;25.75;;;;;9.20;52.71;101594.00;5059278;28;58377;-47
2022/04/27 05:25:08;;;;;;;;;37.50;27.50;;;;;9.23;53.30;101597.47;5052435;28;55301;-47
2022/04/27 05:27:37;;;;;;;;;37.25;29.25;;;;;9.27;52.82;101596.56;5059881;28;45834;-47
2022/04/27 05:32:47;;;;;;;;;33.50;26.50;;;;;9.27;52.96;101603.53;5056884;28;45256;-47
2022/04/27 05:35:13;;;;;;;;;34.75;30.00;;;;;9.28;52.87;101602.69;5060225;28;72972;-48
2022/04/27 05:37:39;;;;;;;;;40.00;27.75;;;;;9.29;52.42;101610.47;5056150;28;45378;-48
2022/04/27 05:40:05;;;;;;;;;42.00;31.00;;;;;9.29;52.87;101614.84;5061119;28;45445;-49
2022/04/27 05:42:30;;;;;;;;;30.50;23.00;;;;;9.30;52.56;101604.38;5058065;28;45345;-48
2022/04/27 05:44:57;;;;;;;;;35.50;29.00;;;;;9.31;53.34;101610.47;5060323;28;46067;-47
2022/04/27 05:47:23;;;;;;;;;33.25;24.50;;;;;9.32;53.15;101615.69;5057851;28;45381;-50
2022/04/27 05:49:50;;;;;;;;;30.00;29.50;;;;;9.34;52.82;101612.19;5052258;28;45586;-47
2022/04/27 05:52:16;;;;;;;;;45.00;30.00;;;;;9.34;53.25;101620.91;5056144;28;45549;-47
2022/04/27 05:54:41;;;;;;;;;31.75;24.00;;;;;9.35;53.11;101625.25;5054277;28;45547;-48
2022/04/27 05:57:06;;;;;;;;;37.25;28.25;;;;;9.31;53.17;101613.97;5054955;28;65868;-49
2022/04/27 05:59:32;;;;;;;;;35.25;28.25;;;;;9.36;53.32;101632.19;5059117;28;65123;-47
2022/04/27 06:01:57;;;;;;;;;44.00;29.75;;;;;9.37;53.33;101633.94;5056304;28;68552;-47
2022/04/27 06:04:22;;;;;;;;;35.25;24.25;;;;;9.41;53.61;101640.88;5058478;28;54531;-48
2022/04/27 06:06:48;;;;;;;;;43.25;31.25;;;;;9.42;53.83;101640.00;5055546;28;48862;-47
2022/04/27 06:09:13;;;;;;;;;33.50;25.75;;;;;9.46;52.97;101639.09;5052557;28;65452;-46
2022/04/27 06:11:39;;;;;;;;;36.25;27.25;;;;;9.48;53.28;101636.47;5059932;28;45647;-47
2022/04/27 06:14:04;;;;;;;;;34.25;29.00;;;;;9.50;52.93;101637.31;5054730;28;47556;-49
2022/04/27 06:16:32;;;;;;;;;40.50;29.50;;;;;9.52;52.78;101648.63;5060767;28;45462;-51
2022/04/27 06:18:58;;;;;;;;;39.25;29.50;;;;;9.52;53.54;101653.84;5059087;28;45468;-48
2022/04/27 06:21:23;;;;;;;;;43.25;27.25;;;;;9.55;53.04;101659.06;5058098;28;45437;-49
2022/04/27 06:23:48;;;;;;;;;49.75;31.00;;;;;9.57;53.31;101653.81;5048830;28;46182;-47
2022/04/27 06:26:14;;;;;;;;;40.25;28.50;;;;;9.63;53.11;101659.88;5059642;28;45359;-47
2022/04/27 06:28:39;;;;;;;;;41.00;30.25;;;;;9.69;53.14;101661.56;5058861;28;45480;-49
2022/04/27 06:31:05;;;;;;;;;35.50;28.50;;;;;9.74;53.55;101657.16;5060083;28;46045;-47
2022/04/27 06:33:30;;;;;;;;;46.75;33.00;;;;;9.81;53.21;101660.56;5054557;28;46028;-47
2022/04/27 06:35:55;;;;;;;;;34.00;26.75;;;;;9.86;53.03;101664.00;5059752;28;69206;-48
2022/04/27 06:38:21;;;;;;;;;47.25;30.00;;;;;9.89;53.06;101653.53;5057839;28;62518;-48
2022/04/27 06:40:47;;;;;;;;;37.00;26.00;;;;;9.98;53.00;101663.03;5055324;28;62801;-47
2022/04/27 06:43:12;;;;;;;;;30.50;25.00;;;;;10.02;53.07;101667.34;5051765;28;45591;-49
2022/04/27 06:45:37;;;;;;;;;35.25;27.25;;;;;10.06;52.84;101674.31;5058730;28;52248;-47
2022/04/27 06:48:03;;;;;;;;;33.75;27.00;;;;;10.11;53.13;101676.84;5055840;28;45783;-47
2022/04/27 06:50:29;;;;;;;;;34.75;26.75;;;;;10.18;52.71;101674.19;5059789;28;47926;-48
2022/04/27 06:52:55;;;;;;;;;41.00;30.75;;;;;10.22;53.16;101677.63;5057073;28;47442;-48
2022/04/27 06:55:20;;;;;;;;;38.25;27.00;;;;;10.26;52.61;101677.56;5056012;28;45959;-49
2022/04/27 06:57:46;;;;;;;;;40.25;33.75;;;;;10.31;52.64;101684.53;5053474;28;60874;-49
2022/04/27 07:00:14;;;;;;;;;45.25;30.00;;;;;10.38;52.81;101686.22;5050838;28;72943;-47
2022/04/27 07:02:40;;;;;;;;;46.25;31.25;;;;;10.46;52.16;101684.38;5053408;28;45472;-46
2022/04/27 07:05:06;;;;;;;;;38.75;30.25;;;;;10.52;52.36;101675.59;5057668;28;71953;-46
2022/04/27 07:07:32;;;;;;;;;43.25;33.50;;;;;10.60;52.44;101689.44;5054407;28;45255;-48
2022/04/27 07:09:57;;;;;;;;;37.75;25.25;;;;;10.60;53.47;101697.31;5047113;28;45516;-46
2022/04/27 07:12:23;;;;;;;;;37.00;31.75;;;;;10.55;53.57;101686.91;5053036;28;47067;-46
2022/04/27 07:14:48;;;;;;;;;51.00;34.25;;;;;10.33;54.05;101667.09;5059458;28;45385;-46
2022/04/27 07:17:14;;;;;;;;;39.75;30.00;;;;;10.40;54.01;101702.75;5057129;28;45992;-46
2022/04/27 07:19:40;;;;;;;;;36.50;29.00;;;;;10.35;54.67;101702.81;5054862;28;58915;-46
2022/04/27 07:22:06;;;;;;;;;37.50;27.75;;;;;10.33;54.67;101703.72;5054735;28;72815;-46
2022/04/27 07:24:32;;;;;;;;;37.50;31.00;;;;;10.30;55.04;101706.31;5052830;28;45429;-48
2022/04/27 07:26:57;;;;;;;;;40.00;30.00;;;;;10.31;54.79;101702.84;5055224;28;56313;-47
2022/04/27 07:29:22;;;;;;;;;40.00;29.75;;;;;10.35;54.54;101699.31;5049757;28;45207;-47
2022/04/27 07:31:49;;;;;;;;;41.25;35.25;;;;;10.36;54.81;101699.31;5056416;28;75375;-45
2022/04/27 07:34:14;;;;;;;;;31.75;23.25;;;;;10.41;54.52;101705.38;5058238;28;45550;-45
2022/04/27 07:36:39;;;;;;;;;41.25;33.50;;;;;10.42;54.53;101706.22;5059776;28;45553;-45
2022/04/27 07:39:06;;;;;;;;;32.00;21.00;;;;;10.47;54.88;101708.81;5056280;28;68886;-45
2022/04/27 07:41:31;;;;;;;;;35.50;30.00;;;;;10.55;54.32;101712.19;5056724;28;46893;-45
2022/04/27 07:43:57;;;;;;;;;44.00;33.75;;;;;10.60;54.23;101711.25;5046945;28;56793;-45
2022/04/27 07:46:23;;;;;;;;;44.50;36.00;;;;;10.66;54.20;101710.34;5060070;28;45327;-45
2022/04/27 07:48:49;;;;;;;;;40.50;31.00;;;;;10.72;54.06;101707.63;5052683;28;54278;-46
2022/04/27 07:51:14;;;;;;;;;46.00;36.00;;;;;10.79;54.10;101713.66;5056043;28;46695;-46
2022/04/27 07:53:40;;;;;;;;;45.25;31.75;;;;;10.82;54.03;101713.63;5056397;28;45315;-46
2022/04/27 07:56:05;;;;;;;;;41.00;31.50;;;;;10.93;53.58;101716.13;5058718;28;68191;-48
2022/04/27 07:58:31;;;;;;;;;45.00;35.25;;;;;10.99;53.78;101716.03;5056819;28;47012;-45
2022/04/27 08:00:57;;;;;;;;;52.25;35.00;;;;;11.07;53.58;101722.03;5056933;28;46899;-46
2022/04/27 08:03:23;;;;;;;;;36.75;32.50;;;;;11.15;53.62;101717.53;5050093;28;45736;-46
2022/04/27 08:05:48;;;;;;;;;44.50;35.00;;;;;11.27;53.18;101716.53;5054996;28;45396;-48
2022/04/27 08:08:14;;;;;;;;;40.75;33.00;;;;;11.36;52.79;101719.00;5050933;28;73116;-50
2022/04/27 08:10:39;;;;;;;;;33.50;27.25;;;;;11.45;52.39;101717.16;5053988;28;47255;-48
2022/04/27 08:13:05;;;;;;;;;24.75;20.50;;;;;11.50;52.63;101720.56;5052873;28;71211;-52
2022/04/27 08:15:30;;;;;;;;;47.25;33.25;;;;;11.58;52.40;101716.09;5055623;28;45396;-51
2022/04/27 08:18:03;;;;;;;;;42.25;31.75;;;;;11.68;52.06;101715.03;5056350;28;45643;-48
2022/04/27 08:23:17;;;;;;;;;26.25;24.25;;;;;11.91;51.64;101719.06;5052763;28;46107;-51
2022/04/27 08:25:43;;;;;;;;;46.50;34.00;;;;;11.99;51.38;101718.94;5056543;28;45370;-50
2022/04/27 08:28:09;;;;;;;;;34.00;26.25;;;;;12.08;51.26;101727.53;5049555;28;45597;-53
2022/04/27 08:30:35;;;;;;;;;26.75;25.25;;;;;12.23;51.46;101726.38;5055552;28;72167;-51
2022/04/27 08:33:01;;;;;;;;;41.25;32.00;;;;;12.40;50.86;101722.59;5052034;28;56455;-51
2022/04/27 08:35:29;;;;;;;;;39.50;30.00;;;;;12.53;50.84;101726.72;5057547;28;45399;-50
2022/04/27 08:37:55;;;;;;;;;34.50;30.50;;;;;12.66;50.56;101728.22;5055693;28;45592;-51
2022/04/27 08:40:21;;;;;;;;;47.25;35.25;;;;;12.79;50.58;101725.34;5056560;28;51369;-53
2022/04/27 08:42:48;;;;;;;;;35.75;32.25;;;;;12.90;50.10;101721.56;5054314;28;45494;-53
2022/04/27 08:45:13;;;;;;;;;46.25;32.00;;;;;13.02;50.20;101728.34;5056844;28;45550;-52
2022/04/27 08:47:38;;;;;;;;;39.00;33.00;;;;;13.12;50.00;101723.78;5052468;28;61199;-50
2022/04/27 08:50:14;;;;;;;;;39.00;31.50;;;;;13.24;49.68;101720.88;5047869;28;74306;-50
2022/04/27 08:52:40;;;;;;;;;39.25;30.50;;;;;13.35;49.66;101723.28;5051509;28;45806;-50
2022/04/27 08:55:06;;;;;;;;;35.50;31.25;;;;;13.46;49.35;101725.69;5050444;28;45396;-50
2022/04/27 08:57:32;;;;;;;;;44.50;33.75;;;;;13.58;49.21;101721.88;5054259;28;45492;-53
2022/04/27 08:59:57;;;;;;;;;37.50;31.75;;;;;13.71;49.37;101727.72;5054020;28;75595;-51
2022/04/27 09:02:26;;;;;;;;;41.00;34.00;;;;;13.83;48.55;101716.91;5053682;28;73160;-53
2022/04/27 09:05:14;;;;;;;;;37.25;32.00;;;;;13.96;48.72;101725.34;5052313;28;45581;-52
2022/04/27 09:07:52;;;;;;;;;34.50;31.00;;;;;14.16;48.76;101719.56;5067296;28;59707;-52
2022/04/27 09:10:19;;;;;;;;;43.50;32.00;;;;;14.53;48.40;101723.84;5056119;28;45618;-52
2022/04/27 09:12:51;;;;;;;;;44.75;33.50;;;;;15.74;48.07;101712.34;5054872;28;45757;-61
2022/04/27 09:15:18;;;;;;;;;43.50;33.00;;;;;17.75;45.92;101724.34;5053718;28;45297;-54
2022/04/27 09:23:42;;;;;;;;;42.00;33.50;;;;;21.84;39.23;101725.44;5054779;28;45490;-55
2022/04/27 09:26:22;;;;;;;;;36.00;29.75;;;;;23.10;37.73;101723.09;5052502;28;45580;-55
2022/04/27 09:28:50;;;;;;;;;41.75;32.75;;;;;24.62;35.02;101718.25;5064627;28;45596;-55
2022/04/27 09:31:26;;;;;;;;;41.25;33.25;;;;;26.24;32.70;101713.50;5057030;28;45533;-55
2022/04/27 09:33:57;;;;;;;;;37.50;30.25;;;;;27.48;31.57;101720.66;5056111;28;45874;-56
2022/04/27 09:36:25;;;;;;;;;33.25;29.25;;;;;28.53;32.11;101718.00;5067007;28;45497;-55
2022/04/27 09:38:51;;;;;;;;;40.00;30.75;;;;;29.59;29.11;101721.97;5058290;28;45490;-55
2022/04/27 09:41:36;;;;;;;;;35.25;30.00;;;;;30.64;28.65;101723.78;5057970;28;45693;-53
2022/04/27 09:44:01;;;;;;;;;33.75;30.50;;;;;31.38;27.32;101726.50;5051505;28;45494;-53
2022/04/27 09:46:27;;;;;;;;;28.50;28.00;;;;;31.93;24.51;101725.50;5054881;28;64611;-54
2022/04/27 09:49:04;;;;;;;;;34.75;30.25;;;;;32.53;26.90;101722.00;5057075;28;73139;-55
2022/04/27 09:51:30;;;;;;;;;30.75;27.25;;;;;33.05;23.54;101721.88;5061104;28;45478;-55
2022/04/27 09:53:55;;;;;;;;;39.00;29.75;;;;;33.66;22.38;101718.94;5048996;28;45323;-56
2022/04/27 09:56:21;;;;;;;;;32.00;28.50;;;;;34.13;23.67;101720.09;5059826;28;69313;-55
2022/04/27 09:58:47;;;;;;;;;35.25;29.00;;;;;34.67;20.81;101720.31;5019778;28;45250;-57
2022/04/27 10:01:14;;;;;;;;;32.00;24.25;;;;;35.08;23.73;101719.25;5035073;28;47167;-55
2022/04/27 10:03:40;;;;;;;;;33.00;27.25;;;;;35.30;19.06;101701.28;5036964;28;45462;-56
2022/04/27 10:06:06;;;;;;;;;38.75;30.00;;;;;35.47;19.83;101705.56;5056654;28;45435;-56
2022/04/27 10:08:34;;;;;;;;;33.75;30.75;;;;;35.89;20.30;101701.50;5058103;28;45426;-56
2022/04/27 10:11:00;;;;;;;;;37.00;30.75;;;;;36.33;21.76;101701.72;5031955;28;47045;-56
2022/04/27 10:13:25;;;;;;;;;38.75;33.25;;;;;36.90;18.92;101697.44;5055711;28;73183;-55
2022/04/27 10:15:51;;;;;;;;;30.75;28.00;;;;;37.48;19.23;101689.22;5058592;28;69333;-57
2022/04/27 10:18:17;;;;;;;;;40.00;32.00;;;;;37.97;18.68;101693.81;5048596;28;73214;-56
2022/04/27 10:20:43;;;;;;;;;32.75;29.50;;;;;38.03;18.73;101687.53;5057145;28;45627;-56
2022/04/27 10:23:21;;;;;;;;;34.00;29.00;;;;;38.48;19.19;101678.97;5049546;28;45379;-55
2022/04/27 10:26:20;;;;;;;;;37.25;31.25;;;;;38.82;18.87;101682.72;5057350;28;45631;-55
2022/04/27 10:28:56;;;;;;;;;34.50;30.25;;;;;37.47;19.63;101668.41;5055498;28;45473;-56
2022/04/27 10:31:53;;;;;;;;;28.25;27.75;;;;;37.50;19.33;101668.00;5055168;28;46953;-56
2022/04/27 10:34:19;;;;;;;;;34.50;30.00;;;;;37.79;19.31;101658.81;5057136;28;46193;-56
2022/04/27 10:36:48;;;;;;;;;31.25;23.50;;;;;37.51;17.99;101651.44;5057484;28;45247;-56
2022/04/27 10:39:14;;;;;;;;;32.25;27.75;;;;;37.76;18.78;101656.47;5052257;28;45429;-55
2022/04/27 10:41:41;;;;;;;;;25.00;24.00;;;;;37.96;18.32;101659.34;5055180;28;46957;-56
2022/04/27 10:44:06;;;;;;;;;26.25;25.00;;;;;38.52;18.17;101656.47;5052562;28;62789;-56
2022/04/27 10:46:39;;;;;;;;;30.75;27.50;;;;;39.22;18.06;101644.47;5058631;28;68283;-56
2022/04/27 10:49:22;;;;;;;;;30.50;25.75;;;;;39.87;13.68;101644.66;5050308;28;45375;-54
2022/04/27 10:52:04;;;;;;;;;28.50;24.50;;;;;40.06;15.95;101651.19;5059110;28;46190;-57
2022/04/27 10:54:31;;;;;;;;;26.50;25.75;;;;;38.69;16.39;101657.00;5052656;28;45347;-57
2022/04/27 10:57:14;;;;;;;;;36.00;26.50;;;;;36.27;18.10;101646.09;5059586;28;45496;-56
2022/04/27 10:59:49;;;;;;;;;29.25;26.25;;;;;34.08;16.54;101643.72;5049773;28;54259;-52
2022/04/27 11:02:33;;;;;;;;;26.25;23.75;;;;;31.89;18.88;101641.03;5057670;28;45327;-52
2022/04/27 11:04:59;;;;;;;;;26.00;22.50;;;;;30.08;20.59;101644.53;5058738;28;45310;-50
2022/04/27 11:07:38;;;;;;;;;25.75;25.25;;;;;28.56;21.76;101642.34;5055101;28;47091;-48
2022/04/27 11:10:21;;;;;;;;;23.25;22.25;;;;;27.40;23.15;101636.13;5051891;28;45575;-49
2022/04/27 11:12:50;;;;;;;;;24.75;23.75;;;;;26.42;24.15;101634.25;5052399;28;48535;-48
2022/04/27 11:15:21;;;;;;;;;25.25;21.00;;;;;25.56;25.12;101632.88;5052054;28;45587;-47
2022/04/27 11:17:51;;;;;;;;;24.00;20.50;;;;;24.96;25.95;101634.66;5054816;28;45442;-47
2022/04/27 11:20:33;;;;;;;;;24.75;21.00;;;;;24.52;26.42;101622.66;5049954;28;45347;-47
2022/04/27 11:22:58;;;;;;;;;25.50;20.25;;;;;23.96;27.12;101631.06;5049614;28;46588;-49
2022/04/27 11:25:28;;;;;;;;;20.50;18.75;;;;;23.40;27.54;101628.59;5053234;28;45545;-49
2022/04/27 11:27:54;;;;;;;;;24.00;20.00;;;;;22.98;27.40;101631.28;5056064;28;45474;-50
2022/04/27 11:30:19;;;;;;;;;24.50;19.25;;;;;22.64;28.46;101622.78;5059204;28;45326;-51